Time;durP1;ratioP1;P1;durP2;ratioP2;P2;SDS_P1;SDS_P2;PMS_P1;PMS_P2;Temp;Humidity;BMP_temperature;BMP_pressure;BME280_temperature;BME280_humidity;BME280_pressure;Samples;Min_cycle;Max_cycle;Signal;HPM_P1;HPM_P2
2022/02/13 00:00:53;;;;;;;2.40;2.30;;;;;;;-1.71;88.35;101442.09;6033708;23;20025;-72
2022/02/13 00:03:21;;;;;;;2.60;2.50;;;;;;;-1.35;87.87;101481.94;6024318;23;20112;-72
2022/02/13 00:05:47;;;;;;;2.55;2.45;;;;;;;-1.77;88.23;101400.88;6026044;23;20180;-72
2022/02/13 00:08:14;;;;;;;2.40;2.30;;;;;;;-1.62;87.76;101435.34;6029392;23;20094;-72
2022/02/13 00:11:00;;;;;;;2.60;2.50;;;;;;;-0.66;87.96;101583.00;5999028;23;20015;-72
2022/02/13 00:13:26;;;;;;;2.40;2.30;;;;;;;-1.12;87.03;101511.34;6002709;23;20369;-72
2022/02/13 00:15:53;;;;;;;2.28;2.17;;;;;;;-0.99;87.38;101527.75;6033932;23;20043;-74
2022/02/13 00:18:19;;;;;;;3.00;2.90;;;;;;;-0.64;87.15;101569.28;6032890;23;20467;-73
2022/02/13 00:20:45;;;;;;;2.30;2.20;;;;;;;-2.03;87.31;101340.59;6002601;23;20050;-71
2022/02/13 00:23:13;;;;;;;4.65;4.35;;;;;;;-0.66;86.98;101563.28;6017041;23;20006;-72
2022/02/13 00:25:39;;;;;;;2.30;2.20;;;;;;;-0.71;87.21;101562.34;6000448;23;20027;-72
2022/02/13 00:28:11;;;;;;;4.00;3.83;;;;;;;-1.09;87.39;101513.94;6022408;23;20185;-72
2022/02/13 00:30:37;;;;;;;2.45;2.35;;;;;;;-1.54;86.47;101426.81;6003411;23;20594;-72
2022/02/13 00:33:03;;;;;;;4.07;3.90;;;;;;;-0.77;87.61;101557.16;6009472;23;20107;-72
2022/02/13 00:35:30;;;;;;;2.92;2.83;;;;;;;-1.12;86.94;101495.00;6028828;23;20494;-71
2022/02/13 00:37:57;;;;;;;2.45;2.35;;;;;;;-3.48;87.17;101090.75;6030151;23;20393;-72
2022/02/13 00:40:23;;;;;;;2.30;2.20;;;;;;;-0.71;86.58;101558.91;6022620;23;20029;-71
2022/02/13 00:42:50;;;;;;;2.55;2.45;;;;;;;-0.74;86.35;101552.03;5994998;23;20109;-72
2022/02/13 00:45:17;;;;;;;3.15;3.05;;;;;;;-1.08;87.09;101500.22;6035621;23;20228;-72
2022/02/13 00:47:43;;;;;;;2.40;2.30;;;;;;;-1.10;87.21;101486.47;6041141;23;20781;-72
2022/02/13 00:50:10;;;;;;;3.70;3.60;;;;;;;-1.41;86.47;101431.25;6029671;23;20023;-72
2022/02/13 00:52:36;;;;;;;2.50;2.40;;;;;;;-1.67;86.61;101394.97;6032124;23;20238;-72
2022/02/13 00:55:03;;;;;;;3.58;3.47;;;;;;;-0.70;86.66;101540.91;6016286;23;20357;-73
2022/02/13 00:57:30;;;;;;;2.40;2.30;;;;;;;-1.31;86.24;101455.38;6029776;23;20448;-71
2022/02/13 00:59:56;;;;;;;2.60;2.50;;;;;;;-0.61;86.41;101534.94;6015510;23;20022;-72
2022/02/13 01:02:23;;;;;;;2.50;2.40;;;;;;;-0.97;85.97;101466.81;6023271;23;21038;-72
2022/02/13 01:04:49;;;;;;;2.30;2.20;;;;;;;-1.42;85.52;101409.78;6025509;23;20445;-72
2022/02/13 01:07:16;;;;;;;3.90;3.75;;;;;;;-1.25;86.20;101445.97;6002680;23;20030;-72
2022/02/13 01:09:42;;;;;;;2.50;2.40;;;;;;;-1.67;86.09;101362.38;6028981;23;20027;-72
2022/02/13 01:12:09;;;;;;;4.07;3.88;;;;;;;-1.35;85.98;101415.84;6024627;23;20034;-72
2022/02/13 01:14:36;;;;;;;2.75;2.65;;;;;;;-1.63;85.39;101374.41;6002174;23;20117;-72
2022/02/13 01:17:02;;;;;;;3.83;3.65;;;;;;;-0.82;85.76;101515.03;6036836;23;20047;-71
2022/02/13 01:19:29;;;;;;;2.30;2.20;;;;;;;-1.72;85.75;101383.78;6027217;23;20300;-72
2022/02/13 01:21:56;;;;;;;2.30;2.20;;;;;;;-0.94;86.87;101530.38;6028392;23;20106;-72
2022/02/13 01:24:23;;;;;;;2.40;2.30;;;;;;;-0.91;86.29;101526.09;5971134;23;20111;-71
2022/02/13 01:26:49;;;;;;;2.50;2.40;;;;;;;-0.91;86.49;101525.25;6035403;23;20011;-70
2022/02/13 01:29:16;;;;;;;3.60;3.50;;;;;;;-0.94;87.14;101522.63;5996163;23;20035;-71
2022/02/13 01:31:44;;;;;;;2.40;2.30;;;;;;;-1.28;86.33;101469.13;6024778;23;20814;-71
2022/02/13 01:34:10;;;;;;;4.22;4.03;;;;;;;-1.22;85.88;101494.94;6029963;23;20040;-73
2022/02/13 01:36:37;;;;;;;2.40;2.30;;;;;;;-1.09;87.31;101513.06;6019794;23;20416;-72
2022/02/13 01:39:03;;;;;;;3.78;3.63;;;;;;;-2.34;86.29;101294.88;5984533;23;20019;-73
2022/02/13 01:41:30;;;;;;;2.40;2.30;;;;;;;-1.59;86.96;101434.50;6028894;23;20039;-73
2022/02/13 01:43:57;;;;;;;2.30;2.20;;;;;;;-2.45;86.61;101298.16;6003892;23;20042;-73
2022/02/13 01:46:23;;;;;;;3.13;2.92;;;;;;;-1.09;86.48;101500.19;6042086;23;20076;-72
2022/02/13 01:48:50;;;;;;;2.63;2.53;;;;;;;-1.47;86.43;101418.31;6005136;23;20035;-73
2022/02/13 01:51:17;;;;;;;3.20;3.10;;;;;;;-1.05;85.98;101496.78;6034062;23;20488;-73
2022/02/13 01:53:47;;;;;;;2.65;2.55;;;;;;;-1.59;86.89;101424.22;5999648;23;20031;-72
2022/02/13 01:56:13;;;;;;;3.95;3.78;;;;;;;-1.40;86.40;101443.28;6019886;23;20019;-72
2022/02/13 01:58:40;;;;;;;2.30;2.20;;;;;;;-1.12;86.83;101488.16;6020607;23;20018;-72
2022/02/13 02:01:06;;;;;;;3.38;3.28;;;;;;;-1.57;86.87;101421.66;5992713;23;20134;-73
2022/02/13 02:03:32;;;;;;;2.30;2.20;;;;;;;-1.34;86.88;101466.50;6025140;23;20015;-72
2022/02/13 02:05:59;;;;;;;2.42;2.33;;;;;;;-1.69;87.10;101391.53;6023419;23;20098;-73
2022/02/13 02:08:26;;;;;;;2.40;2.30;;;;;;;-1.61;87.38;101426.75;6003625;23;20015;-72
2022/02/13 02:10:52;;;;;;;2.40;2.30;;;;;;;-1.22;87.82;101481.22;5998728;23;20506;-72
2022/02/13 02:13:19;;;;;;;2.30;2.20;;;;;;;-1.23;86.99;101479.47;5993414;23;20102;-72
2022/02/13 02:15:45;;;;;;;2.42;2.33;;;;;;;-1.98;87.00;101362.94;6026762;23;20166;-72
2022/02/13 02:18:12;;;;;;;7.20;5.28;;;;;;;-2.01;87.47;101377.47;6016300;23;20023;-72
2022/02/13 02:20:39;;;;;;;2.35;2.25;;;;;;;-1.80;87.01;101383.72;5990042;23;20019;-73
2022/02/13 02:23:05;;;;;;;4.07;3.88;;;;;;;-1.21;87.28;101475.19;6017230;23;20082;-73
2022/02/13 02:25:32;;;;;;;2.90;2.80;;;;;;;-1.62;87.74;101419.91;6001131;23;20527;-72
2022/02/13 02:27:58;;;;;;;2.38;2.28;;;;;;;-1.67;87.18;101403.53;6016924;23;20519;-73
2022/02/13 02:30:25;;;;;;;2.50;2.40;;;;;;;-1.68;87.31;101414.69;5979945;23;20079;-73
2022/02/13 02:32:51;;;;;;;2.50;2.40;;;;;;;-1.27;87.90;101496.59;6021716;23;20040;-75
2022/02/13 02:35:17;;;;;;;3.53;3.42;;;;;;;-1.93;86.99;101374.13;5989649;23;20482;-73
2022/02/13 02:37:44;;;;;;;2.70;2.60;;;;;;;-2.14;87.59;101351.66;6029075;23;20125;-72
2022/02/13 02:40:11;;;;;;;3.63;3.53;;;;;;;-1.45;87.62;101473.25;6026711;23;20098;-73
2022/02/13 02:42:38;;;;;;;2.70;2.60;;;;;;;-2.02;88.34;101372.34;6005967;23;20277;-72
2022/02/13 02:45:05;;;;;;;3.55;3.45;;;;;;;-1.84;88.71;101387.09;6030476;23;20094;-72
2022/02/13 02:47:31;;;;;;;2.40;2.30;;;;;;;-2.10;88.32;101377.41;6042915;23;20530;-74
2022/02/13 02:49:57;;;;;;;2.28;2.17;;;;;;;-1.54;88.14;101462.84;6002343;23;20029;-73
2022/02/13 02:52:25;;;;;;;2.50;2.40;;;;;;;-1.76;88.11;101454.94;6028246;23;20015;-73
2022/02/13 02:54:52;;;;;;;2.63;2.53;;;;;;;-1.63;88.17;101449.03;6021613;23;20049;-73
2022/02/13 02:57:18;;;;;;;3.25;3.15;;;;;;;-1.61;88.93;101449.06;6017823;23;20540;-74
2022/02/13 02:59:45;;;;;;;2.70;2.60;;;;;;;-2.31;88.65;101352.31;6001305;23;20030;-73
2022/02/13 03:02:11;;;;;;;3.80;3.67;;;;;;;-2.74;88.82;101289.28;6010434;23;20019;-70
2022/02/13 03:04:38;;;;;;;2.25;2.15;;;;;;;-2.66;88.66;101319.34;5996068;23;20484;-72
2022/02/13 03:07:04;;;;;;;4.07;3.88;;;;;;;-2.84;89.50;101281.47;6011389;23;20455;-71
2022/02/13 03:09:31;;;;;;;2.15;2.05;;;;;;;-1.94;90.01;101426.44;6021215;23;20184;-72
2022/02/13 03:11:57;;;;;;;2.33;2.22;;;;;;;-2.93;89.47;101250.53;5997033;23;20043;-73
2022/02/13 03:14:24;;;;;;;2.10;2.00;;;;;;;-2.61;90.25;101310.00;6023234;23;20574;-71
2022/02/13 03:16:50;;;;;;;3.72;2.72;;;;;;;-1.96;89.91;101416.13;6025514;23;20346;-71
2022/02/13 03:19:16;;;;;;;3.30;3.20;;;;;;;-2.22;89.63;101367.84;6031331;23;20019;-71
2022/02/13 03:21:43;;;;;;;2.13;2.03;;;;;;;-2.72;90.65;101285.03;5973763;23;20050;-71
2022/02/13 03:24:09;;;;;;;4.28;4.07;;;;;;;-3.10;90.40;101231.50;5996034;23;20346;-72
2022/02/13 03:26:36;;;;;;;2.30;2.20;;;;;;;-2.30;91.46;101358.34;6030876;23;20041;-71
2022/02/13 03:29:03;;;;;;;3.15;3.05;;;;;;;-2.13;91.41;101395.34;5981435;23;20468;-71
2022/02/13 03:31:29;;;;;;;2.50;2.40;;;;;;;-2.73;91.27;101296.13;6027722;23;20341;-71
2022/02/13 03:33:56;;;;;;;2.50;2.40;;;;;;;-2.38;90.29;101352.25;6019151;23;20078;-71
2022/02/13 03:36:22;;;;;;;2.30;2.20;;;;;;;-2.97;91.23;101289.00;5999880;23;20051;-71
2022/02/13 03:38:49;;;;;;;2.65;2.55;;;;;;;-2.27;91.27;101395.19;6029670;23;20007;-71
2022/02/13 03:41:15;;;;;;;5.90;5.60;;;;;;;-2.32;91.93;101378.00;6017650;23;20031;-71
2022/02/13 03:43:41;;;;;;;2.20;2.10;;;;;;;-2.30;92.58;101377.19;6007870;23;20031;-70
2022/02/13 03:46:08;;;;;;;3.50;3.40;;;;;;;-2.97;91.85;101269.31;6028797;23;20031;-71
2022/02/13 03:48:34;;;;;;;2.15;2.05;;;;;;;-2.25;91.79;101380.66;6004855;23;20031;-72
2022/02/13 03:51:01;;;;;;;2.63;2.53;;;;;;;-2.63;92.55;101306.56;6019542;23;20506;-71
2022/02/13 03:53:27;;;;;;;2.40;2.30;;;;;;;-2.26;91.95;101376.38;5988497;23;20014;-71
2022/02/13 03:55:54;;;;;;;2.20;2.10;;;;;;;-2.28;91.30;101374.63;6036732;23;20019;-70
2022/02/13 03:58:20;;;;;;;2.30;2.20;;;;;;;-2.19;92.57;101368.72;6021658;23;20025;-71
2022/02/13 04:00:46;;;;;;;2.30;2.20;;;;;;;-2.54;91.94;101289.53;6030431;23;20105;-72
2022/02/13 04:03:13;;;;;;;4.22;4.03;;;;;;;-2.28;91.31;101328.34;6023587;23;20444;-71
2022/02/13 04:05:39;;;;;;;2.25;2.15;;;;;;;-3.31;91.10;101161.06;6011608;23;20035;-72
2022/02/13 04:08:07;;;;;;;3.72;3.58;;;;;;;-2.65;90.82;101279.09;6037334;23;20054;-71
2022/02/13 04:10:34;;;;;;;2.58;2.45;;;;;;;-2.09;90.47;101363.69;5995745;23;20018;-71
2022/02/13 04:13:00;;;;;;;2.63;2.53;;;;;;;-2.61;90.44;101262.88;5976583;23;20519;-73
2022/02/13 04:15:27;;;;;;;2.40;2.30;;;;;;;-2.81;90.92;101222.44;6024988;23;20081;-72
2022/02/13 04:17:53;;;;;;;2.60;2.50;;;;;;;-2.03;90.61;101356.03;6046710;23;20097;-72
2022/02/13 04:20:20;;;;;;;2.50;2.40;;;;;;;-3.07;90.52;101183.59;5998032;23;20239;-72
2022/02/13 04:22:47;;;;;;;2.28;2.17;;;;;;;-2.08;91.11;101349.13;6000270;23;20019;-72
2022/02/13 04:25:13;;;;;;;3.97;3.80;;;;;;;-2.10;91.49;101351.69;6024049;23;20031;-72
2022/02/13 04:27:40;;;;;;;2.30;2.20;;;;;;;-2.18;90.89;101343.03;5999591;23;20082;-72
2022/02/13 04:30:07;;;;;;;4.32;4.13;;;;;;;-2.90;91.05;101219.75;6025539;23;20026;-72
2022/02/13 04:32:34;;;;;;;2.10;2.00;;;;;;;-2.22;91.41;101343.84;6028183;23;20120;-72
2022/02/13 04:35:00;;;;;;;2.72;2.63;;;;;;;-2.28;91.36;101336.94;5962802;23;20020;-72
2022/02/13 04:37:27;;;;;;;2.10;2.00;;;;;;;-2.49;91.31;101316.13;6030654;23;20030;-71
2022/02/13 04:39:54;;;;;;;2.28;2.17;;;;;;;-2.29;92.41;101337.75;6005350;23;20022;-73
2022/02/13 04:42:22;;;;;;;2.60;2.50;;;;;;;-2.19;91.68;101337.88;5996825;23;20015;-71
2022/02/13 04:44:49;;;;;;;2.20;2.10;;;;;;;-2.22;91.81;101337.00;6038433;23;20027;-72
2022/02/13 04:47:15;;;;;;;3.90;3.75;;;;;;;-2.51;91.18;101294.69;6021453;23;20131;-71
2022/02/13 04:49:42;;;;;;;2.33;2.22;;;;;;;-3.11;91.23;101197.25;6031841;23;20097;-71
2022/02/13 04:52:08;;;;;;;3.92;3.72;;;;;;;-2.82;91.96;101261.78;6023538;23;20014;-71
2022/02/13 04:54:35;;;;;;;2.30;2.20;;;;;;;-3.48;91.45;101139.50;5997271;23;20106;-72
2022/02/13 04:57:01;;;;;;;2.58;2.47;;;;;;;-2.71;91.84;101276.47;6003467;23;20015;-71
2022/02/13 04:59:33;;;;;;;2.25;2.15;;;;;;;-2.70;92.47;101309.88;5978146;23;20072;-71
2022/02/13 05:02:00;;;;;;;2.53;2.43;;;;;;;-2.63;91.46;101310.81;6027942;23;20046;-71
2022/02/13 05:04:30;;;;;;;2.28;2.17;;;;;;;-3.30;92.39;101209.00;5983343;23;20080;-71
2022/02/13 05:06:56;;;;;;;2.30;2.20;;;;;;;-3.32;91.89;101187.59;6003432;23;20090;-71
2022/02/13 05:09:23;;;;;;;2.13;2.03;;;;;;;-2.74;92.31;101286.72;6024199;23;20039;-72
2022/02/13 05:11:49;;;;;;;2.75;2.55;;;;;;;-3.22;92.61;101207.38;6026293;23;20426;-71
2022/02/13 05:14:15;;;;;;;5.20;4.82;;;;;;;-2.91;92.92;101269.38;6006484;23;20042;-72
2022/02/13 05:16:42;;;;;;;2.40;2.30;;;;;;;-3.10;92.75;101272.59;6031785;23;20077;-72
2022/02/13 05:19:08;;;;;;;3.88;3.72;;;;;;;-2.68;94.04;101304.78;6027094;23;20030;-71
2022/02/13 05:21:35;;;;;;;2.22;2.13;;;;;;;-3.55;93.95;101156.50;6002144;23;20029;-71
2022/02/13 05:24:01;;;;;;;3.22;3.10;;;;;;;-3.09;93.39;101249.47;5994991;23;20352;-74
2022/02/13 05:26:27;;;;;;;2.35;2.25;;;;;;;-2.71;93.41;101302.16;6034465;23;20021;-72
2022/02/13 05:28:54;;;;;;;2.50;2.40;;;;;;;-3.37;94.22;101196.06;5980454;23;20023;-71
2022/02/13 05:31:20;;;;;;;2.75;2.65;;;;;;;-3.61;93.54;101171.81;6025728;23;20421;-71
2022/02/13 05:33:47;;;;;;;2.08;1.98;;;;;;;-4.18;93.70;101101.78;6025030;23;20464;-72
2022/02/13 05:36:13;;;;;;;3.25;3.15;;;;;;;-4.21;93.80;101053.94;6006828;23;20527;-72
2022/02/13 05:38:40;;;;;;;2.72;2.63;;;;;;;-3.88;94.01;101121.00;6009307;23;20508;-70
2022/02/13 05:41:06;;;;;;;3.95;3.78;;;;;;;-2.83;94.73;101288.34;6028410;23;20070;-71
2022/02/13 05:43:33;;;;;;;2.67;2.58;;;;;;;-3.06;94.43;101257.22;6010727;23;20054;-71
2022/02/13 05:45:59;;;;;;;2.45;2.35;;;;;;;-2.92;95.24;101271.94;6036847;23;20020;-71
2022/02/13 05:48:26;;;;;;;2.67;2.58;;;;;;;-2.87;93.95;101276.28;6005494;23;20215;-72
2022/02/13 05:50:53;;;;;;;2.40;2.30;;;;;;;-3.41;94.89;101195.16;6035727;23;20427;-71
2022/02/13 05:53:20;;;;;;;2.63;2.53;;;;;;;-3.69;94.59;101143.50;6023576;23;20090;-71
2022/02/13 05:55:46;;;;;;;2.35;2.25;;;;;;;-2.89;94.08;101275.41;5997089;23;20082;-71
2022/02/13 05:58:12;;;;;;;3.80;3.67;;;;;;;-3.49;94.75;101189.06;6033826;23;20014;-71
2022/02/13 06:00:39;;;;;;;2.20;2.10;;;;;;;-2.89;94.03;101271.97;6031632;23;20098;-71
2022/02/13 06:03:05;;;;;;;4.40;4.20;;;;;;;-3.75;94.90;101129.72;5994214;23;20030;-72
2022/02/13 06:05:32;;;;;;;2.20;2.10;;;;;;;-3.42;94.44;101194.31;6024748;23;20105;-71
2022/02/13 06:07:59;;;;;;;2.15;2.05;;;;;;;-2.95;94.47;101266.75;6002013;23;20018;-71
2022/02/13 06:10:26;;;;;;;2.38;2.28;;;;;;;-4.74;94.51;100976.31;5996599;23;20007;-71
2022/02/13 06:12:52;;;;;;;2.30;2.20;;;;;;;-2.95;94.64;101282.16;5994488;23;20042;-71
2022/02/13 06:15:19;;;;;;;2.80;2.70;;;;;;;-2.89;95.45;101279.69;5996521;23;20012;-71
2022/02/13 06:17:46;;;;;;;2.20;2.10;;;;;;;-2.91;94.82;101269.38;5997161;23;20007;-71
2022/02/13 06:20:12;;;;;;;4.03;3.83;;;;;;;-2.85;95.37;101254.03;6024194;23;21129;-72
2022/02/13 06:22:39;;;;;;;2.30;2.20;;;;;;;-2.62;95.86;101277.44;5990342;23;20026;-71
2022/02/13 06:25:06;;;;;;;3.90;3.72;;;;;;;-2.88;94.34;101210.38;6022057;23;20155;-72
2022/02/13 06:27:33;;;;;;;2.20;2.10;;;;;;;-3.27;94.15;101133.75;6029229;23;20010;-71
2022/02/13 06:30:00;;;;;;;2.78;2.67;;;;;;;-4.60;93.59;100928.72;6030583;23;20097;-72
2022/02/13 06:32:27;;;;;;;2.20;2.10;;;;;;;-2.84;92.94;101209.53;6001436;23;20687;-71
2022/02/13 06:34:54;;;;;;;2.10;2.00;;;;;;;-2.38;93.89;101275.13;5976639;23;20444;-71
2022/02/13 06:37:20;;;;;;;2.20;2.10;;;;;;;-2.87;92.35;101217.19;6018373;23;20067;-71
2022/02/13 06:39:46;;;;;;;2.22;2.13;;;;;;;-2.41;93.41;101265.66;6008982;23;20169;-72
2022/02/13 06:42:13;;;;;;;3.22;3.13;;;;;;;-2.54;93.15;101244.13;6043542;23;20123;-71
2022/02/13 06:44:39;;;;;;;2.20;2.10;;;;;;;-2.75;92.68;101223.34;6030938;23;20474;-71
2022/02/13 06:47:06;;;;;;;4.07;3.88;;;;;;;-2.36;91.64;101247.72;6008233;23;20090;-71
2022/02/13 06:49:35;;;;;;;2.58;2.47;;;;;;;-2.73;91.62;101195.94;6024595;23;20374;-72
2022/02/13 06:52:02;;;;;;;2.65;2.55;;;;;;;-3.32;91.35;101090.06;6000468;23;20031;-71
2022/02/13 06:54:28;;;;;;;2.30;2.20;;;;;;;-3.12;92.33;101113.38;6025455;23;20037;-70
2022/02/13 06:56:54;;;;;;;2.33;2.22;;;;;;;-2.85;91.80;101155.59;5964085;23;20011;-73
2022/02/13 06:59:22;;;;;;;2.50;2.40;;;;;;;-2.45;92.62;101226.22;6017360;23;20213;-74
2022/02/13 07:01:48;;;;;;;2.28;2.17;;;;;;;-2.15;91.41;101247.91;5990221;23;20102;-71
2022/02/13 07:04:15;;;;;;;4.05;3.85;;;;;;;-2.15;91.06;101250.47;6010727;23;20054;-71
2022/02/13 07:06:41;;;;;;;2.30;2.20;;;;;;;-2.92;91.44;101126.44;6001522;23;20279;-70
2022/02/13 07:09:08;;;;;;;4.32;4.13;;;;;;;-2.39;90.84;101192.00;6014880;23;20082;-70
2022/02/13 07:11:34;;;;;;;2.35;2.25;;;;;;;-3.76;91.61;100982.69;6018994;23;20055;-71
2022/02/13 07:14:01;;;;;;;2.88;2.78;;;;;;;-2.45;91.68;101172.25;5996142;23;20172;-71
2022/02/13 07:16:29;;;;;;;2.50;2.40;;;;;;;-2.44;91.42;101179.13;5999894;23;20492;-71
2022/02/13 07:18:56;;;;;;;2.35;2.25;;;;;;;-1.98;90.84;101227.50;6029723;23;20089;-70
2022/02/13 07:21:23;;;;;;;2.40;2.30;;;;;;;-2.30;91.32;101168.09;6019857;23;20023;-73
2022/02/13 07:23:49;;;;;;;2.55;2.45;;;;;;;-2.58;91.27;101129.31;5964625;23;20048;-72
2022/02/13 07:26:16;;;;;;;4.28;4.07;;;;;;;-2.15;91.22;101168.19;6018819;23;20033;-71
2022/02/13 07:29:00;;;;;;;2.92;2.83;;;;;;;-1.79;90.78;101202.75;6021317;23;20075;-71
2022/02/13 07:31:29;;;;;;;2.30;2.20;;;;;;;-1.70;90.57;101194.25;6017410;23;20027;-71
2022/02/13 07:33:57;;;;;;;2.40;2.30;;;;;;;-3.17;90.64;100940.47;6006563;23;20019;-72
2022/02/13 07:36:24;;;;;;;2.60;2.50;;;;;;;-1.93;89.74;101146.06;6023316;23;20058;-71
2022/02/13 07:38:50;;;;;;;2.72;2.63;;;;;;;-1.99;90.56;101111.75;6030440;23;20650;-71
2022/02/13 07:41:18;;;;;;;3.17;3.08;;;;;;;-1.93;90.24;101098.91;6021298;23;20046;-73
2022/02/13 07:43:44;;;;;;;2.90;2.80;;;;;;;-1.34;89.59;101187.56;6006861;23;20027;-71
2022/02/13 07:46:11;;;;;;;4.05;3.85;;;;;;;-1.54;88.81;101128.25;6029570;23;20054;-71
2022/02/13 07:48:37;;;;;;;2.60;2.50;;;;;;;-1.09;88.29;101179.06;5990271;23;20434;-71
2022/02/13 07:51:04;;;;;;;4.43;4.22;;;;;;;-1.02;87.69;101182.56;6022819;23;20037;-71
2022/02/13 07:53:31;;;;;;;2.28;2.17;;;;;;;-1.46;86.87;101080.28;6019863;23;20022;-71
2022/02/13 07:55:57;;;;;;;2.60;2.50;;;;;;;-1.36;86.30;101092.31;6024654;23;20039;-71
2022/02/13 07:58:24;;;;;;;3.08;2.97;;;;;;;-0.66;85.95;101178.31;6017356;23;20038;-70
2022/02/13 08:00:50;;;;;;;2.67;2.58;;;;;;;-0.57;84.96;101180.06;6032401;23;20483;-72
2022/02/13 08:03:17;;;;;;;3.40;3.30;;;;;;;-0.46;83.73;101186.97;6020071;23;20017;-71
2022/02/13 08:05:44;;;;;;;2.58;2.47;;;;;;;-0.38;83.33;101176.66;5993812;23;20358;-71
2022/02/13 08:08:13;;;;;;;5.30;5.00;;;;;;;-0.68;83.02;101103.59;6014115;23;20144;-71
2022/02/13 08:10:40;;;;;;;2.53;2.42;;;;;;;-0.65;81.71;101092.44;5998738;23;20037;-71
2022/02/13 08:13:06;;;;;;;4.63;4.43;;;;;;;-0.43;81.19;101091.56;6024324;23;20504;-73
2022/02/13 08:15:33;;;;;;;2.80;2.70;;;;;;;-0.49;80.42;101065.78;5999043;23;20078;-72
2022/02/13 08:18:11;;;;;;;3.33;3.20;;;;;;;0.10;80.20;101162.03;5986018;23;20464;-71
2022/02/13 08:20:39;;;;;;;2.70;2.50;;;;;;;0.19;79.78;101156.81;5995841;23;20094;-72
2022/02/13 08:23:08;;;;;;;3.50;3.40;;;;;;;0.13;79.25;101135.34;6022310;23;20033;-73
2022/02/13 08:25:34;;;;;;;2.92;2.83;;;;;;;0.01;78.42;101089.78;5998172;23;20047;-70
2022/02/13 08:28:01;;;;;;;3.28;3.17;;;;;;;0.47;78.14;101155.91;6012875;23;20022;-72
2022/02/13 08:30:27;;;;;;;2.60;2.50;;;;;;;0.16;77.44;101104.34;5996356;23;20264;-72
2022/02/13 08:32:58;;;;;;;2.70;2.60;;;;;;;0.19;77.28;101069.06;6027508;23;20108;-72
2022/02/13 08:35:25;;;;;;;2.70;2.60;;;;;;;0.71;76.72;101154.97;5999963;23;20054;-71
2022/02/13 08:37:52;;;;;;;3.30;3.15;;;;;;;0.07;76.45;101045.91;5993661;23;20019;-71
2022/02/13 08:40:18;;;;;;;3.92;3.72;;;;;;;0.89;75.41;101148.84;6023575;23;20038;-71
2022/02/13 08:42:45;;;;;;;2.80;2.70;;;;;;;0.95;74.45;101141.91;5999127;23;20034;-70
2022/02/13 08:45:11;;;;;;;4.18;3.97;;;;;;;0.53;74.72;101079.25;6001616;23;20022;-72
2022/02/13 08:47:38;;;;;;;2.60;2.50;;;;;;;1.18;74.33;101149.53;6028214;23;20026;-71
2022/02/13 08:50:05;;;;;;;4.10;3.92;;;;;;;0.75;73.52;101058.50;6031227;23;20018;-72
2022/02/13 08:52:31;;;;;;;2.60;2.50;;;;;;;1.41;72.86;101148.53;6027854;23;20216;-72
2022/02/13 08:54:57;;;;;;;2.90;2.80;;;;;;;0.17;72.68;100925.41;5961267;23;20027;-72
2022/02/13 08:57:24;;;;;;;3.38;3.28;;;;;;;1.59;72.18;101145.78;6030807;23;20031;-71
2022/02/13 08:59:50;;;;;;;2.75;2.65;;;;;;;1.73;71.43;101150.00;6024484;23;20031;-71
2022/02/13 09:02:17;;;;;;;4.15;3.95;;;;;;;1.19;71.29;101026.31;6026943;23;20019;-72
2022/02/13 09:04:43;;;;;;;3.42;3.33;;;;;;;1.44;70.24;101068.31;6003710;23;20027;-71
2022/02/13 09:07:10;;;;;;;4.20;4.00;;;;;;;2.00;70.57;101143.72;6014787;23;20033;-71
2022/02/13 09:09:36;;;;;;;3.05;2.95;;;;;;;2.23;69.00;101132.28;6017939;23;20027;-71
2022/02/13 09:12:03;;;;;;;4.50;4.30;;;;;;;2.28;68.66;101126.16;5993769;23;20564;-72
2022/02/13 09:14:30;;;;;;;3.75;3.55;;;;;;;1.33;67.95;100974.47;6021256;23;20034;-72
2022/02/13 09:16:56;;;;;;;3.00;2.90;;;;;;;1.93;68.49;101054.91;6005968;23;20015;-70
2022/02/13 09:19:23;;;;;;;3.10;3.00;;;;;;;2.24;68.19;101072.69;6015395;23;20085;-72
2022/02/13 09:21:52;;;;;;;3.10;3.00;;;;;;;2.07;67.16;101012.50;5998007;23;20084;-71
2022/02/13 09:24:20;;;;;;;3.30;3.20;;;;;;;2.93;65.72;101122.78;6006536;23;20376;-72
2022/02/13 09:26:46;;;;;;;2.80;2.70;;;;;;;2.33;65.54;101020.78;5995388;23;20026;-72
2022/02/13 09:29:13;;;;;;;4.43;4.22;;;;;;;3.09;65.12;101115.66;6011079;23;20105;-72
2022/02/13 09:31:39;;;;;;;3.08;2.97;;;;;;;2.51;64.34;101005.88;5994210;23;20332;-72
2022/02/13 09:34:06;;;;;;;4.65;4.45;;;;;;;3.24;64.17;101110.22;6025101;23;20596;-71
2022/02/13 09:36:32;;;;;;;3.00;2.90;;;;;;;3.37;64.10;101105.72;6026471;23;20053;-71
2022/02/13 09:38:59;;;;;;;2.90;2.80;;;;;;;3.47;62.85;101099.50;6004227;23;20396;-74
2022/02/13 09:41:26;;;;;;;2.80;2.70;;;;;;;3.17;63.80;101036.00;6002903;23;20101;-71
2022/02/13 09:43:54;;;;;;;2.80;2.70;;;;;;;3.30;62.38;101029.72;6007999;23;20090;-72
2022/02/13 09:46:22;;;;;;;2.88;2.78;;;;;;;3.19;61.23;101006.56;5999987;23;20474;-71
2022/02/13 09:48:51;;;;;;;2.90;2.80;;;;;;;3.82;62.02;101082.44;6026626;23;20089;-71
2022/02/13 09:51:17;;;;;;;4.55;4.35;;;;;;;3.74;62.07;101054.03;6022102;23;20031;-72
2022/02/13 09:53:44;;;;;;;2.92;2.83;;;;;;;3.80;61.98;101050.47;6027774;23;20023;-71
2022/02/13 09:56:11;;;;;;;4.03;3.83;;;;;;;3.59;62.03;100987.69;6039314;23;20341;-72
2022/02/13 09:58:38;;;;;;;2.90;2.80;;;;;;;3.85;60.46;101001.91;6020956;23;20084;-72
2022/02/13 10:01:10;;;;;;;4.28;4.07;;;;;;;4.24;60.05;101068.69;6001644;23;20054;-74
2022/02/13 10:03:42;;;;;;;3.22;3.13;;;;;;;2.71;59.65;100796.56;6026520;23;20106;-71
2022/02/13 10:06:11;;;;;;;6.15;5.85;;;;;;;4.38;59.30;101051.91;5996675;23;20042;-72
2022/02/13 10:08:49;;;;;;;3.30;3.20;;;;;;;4.29;58.78;101033.94;6026416;23;20508;-72
2022/02/13 10:11:17;;;;;;;4.45;4.25;;;;;;;4.59;58.68;101052.34;5989233;23;20035;-72
2022/02/13 10:14:05;;;;;;;3.20;3.10;;;;;;;4.80;59.44;101043.22;6032590;23;20026;-73
2022/02/13 10:16:31;;;;;;;2.97;2.88;;;;;;;4.90;57.24;101043.88;6027862;23;20018;-71
2022/02/13 10:19:06;;;;;;;3.20;3.10;;;;;;;4.95;57.01;101045.47;5994453;23;20033;-72
2022/02/13 10:21:44;;;;;;;3.00;2.90;;;;;;;5.04;57.13;101028.78;6009232;23;20218;-71
2022/02/13 10:24:28;;;;;;;5.53;4.95;;;;;;;5.27;56.25;101042.97;6003170;23;20297;-71
2022/02/13 10:27:00;;;;;;;3.10;3.00;;;;;;;5.43;56.35;101046.06;6006915;23;20023;-72
2022/02/13 10:29:29;;;;;;;3.20;3.10;;;;;;;4.99;56.76;100963.00;5995246;23;20027;-70
2022/02/13 10:32:20;;;;;;;3.90;3.70;;;;;;;5.53;56.18;101032.78;6007118;23;20022;-71
2022/02/13 10:35:04;;;;;;;3.30;3.20;;;;;;;5.60;55.06;101041.28;6026923;23;20023;-70
2022/02/13 10:37:56;;;;;;;3.67;3.58;;;;;;;5.37;54.84;100989.81;6022012;23;20031;-71
2022/02/13 10:40:25;;;;;;;4.43;4.13;;;;;;;5.80;54.62;101025.13;6032386;23;20026;-71
2022/02/13 10:43:11;;;;;;;3.20;3.10;;;;;;;5.90;55.25;101023.13;6038500;23;20086;-71
2022/02/13 10:45:39;;;;;;;3.53;3.40;;;;;;;5.70;54.05;100977.66;6020011;23;20029;-71
2022/02/13 10:48:07;;;;;;;4.53;4.32;;;;;;;6.11;54.59;101006.06;6022305;23;20026;-71
2022/02/13 10:50:36;;;;;;;3.30;3.20;;;;;;;6.21;55.56;101007.50;6022563;23;20019;-72
2022/02/13 10:53:07;;;;;;;4.20;4.05;;;;;;;5.88;55.14;100938.97;5989094;23;20077;-72
2022/02/13 10:55:36;;;;;;;4.05;3.85;;;;;;;6.41;54.26;100985.22;6018417;23;20401;-72
2022/02/13 10:58:04;;;;;;;4.28;4.10;;;;;;;6.16;53.37;100918.19;5995414;23;20035;-73
2022/02/13 11:00:31;;;;;;;3.40;3.30;;;;;;;6.68;52.92;100976.53;6024318;23;20025;-74
2022/02/13 11:03:04;;;;;;;3.60;3.50;;;;;;;6.78;52.48;100977.09;5996181;23;20425;-73
2022/02/13 11:05:32;;;;;;;3.40;3.30;;;;;;;6.89;53.70;100976.75;5993627;23;20016;-72
2022/02/13 11:08:06;;;;;;;3.55;3.42;;;;;;;7.07;51.29;100963.09;6029166;23;20007;-72
2022/02/13 11:10:39;;;;;;;3.50;3.40;;;;;;;7.04;53.00;100963.22;6001769;23;20074;-72
2022/02/13 11:13:06;;;;;;;5.32;4.93;;;;;;;6.74;52.05;100900.72;6028947;23;20014;-72
2022/02/13 11:15:33;;;;;;;3.33;3.22;;;;;;;6.86;52.07;100891.63;6029717;23;20022;-72
2022/02/13 11:18:07;;;;;;;3.58;3.47;;;;;;;7.14;52.32;100946.34;6017131;23;20016;-72
2022/02/13 11:20:36;;;;;;;3.50;3.40;;;;;;;7.29;52.39;100947.56;6028870;23;20074;-71
2022/02/13 11:23:21;;;;;;;4.70;4.32;;;;;;;7.27;51.99;100941.53;6015690;23;20019;-71
2022/02/13 11:26:01;;;;;;;3.40;3.30;;;;;;;7.31;51.40;100930.09;6026136;23;20022;-71
2022/02/13 11:28:43;;;;;;;3.55;3.45;;;;;;;7.52;51.80;100932.88;6026904;23;20131;-71